Darstellungsparameter: Aktuell verwendete Einstellungen:
Skalierung der Graphiken ... ?
xyx+y,   Skalierungsfaktor:      Skalierung: Modus: x, Faktor: 1
Darstellungszeitraum ... ?
Vom - - bis: - -   Zeitraum: 01.08.2019 - 01.08.2019
Min/Max/Avg-Anzeige ... ?
Zeige MMA aktuell
Zeige MMA Monat
Zeige MMA alles
Zeige --A aktuell
Zeige --A Monat
Zeige --A alles
Keine MMA-Anzeige
MMA:
Keine MMA-Graphiken
MMA-Basis: 01.08.2019 - 01.08.2019
Quicknavigation für Darstellung... ?
Tage:      1T, 2T, 3T, 5T -1T -2T -3T -5T +1T +2T +3T +5T
Wochen: 1W, 2W, 3W -1W -2W -3W +1W +2W +3W
Monate: 1M, 3M, 6M -1M -3M -6M +1M +3M +6M
Jahre:    1J, 3J, 5J, 10J -1J -3J -5J -10J +1J +3J +5J +10J
Nutze für die Darstellung ... ?
Originaldaten oder Mittelwerte auf ...
Stundenbasis Tagesbasis Wochenbasis
Monatsbasis Jahresbasis      Datenbasis: Original-Daten
Darstellen als:
Statistik (Auto) Statistik J:M      Darstellung:
Zur Graphik,    zurück zur Übersicht aller Sensoren.
 
Tabellarische Datenbersicht: ?
 
Sensor: Nr:Datum:Temp:Feuchte:Taupunkt:
Aussen-T/F 1 01-08-2019 00:00:00 17.4 C 68 % 11.44 C
2 01-08-2019 00:05:00 17.3 C 69 % 11.56 C
3 01-08-2019 00:10:00 17.2 C 69 % 11.47 C
4 01-08-2019 00:15:00 17.1 C 70 % 11.59 C
5 01-08-2019 00:20:00 17 C 70 % 11.49 C
6 01-08-2019 00:25:00 16.9 C 71 % 11.61 C
7 01-08-2019 00:30:00 16.9 C 71 % 11.61 C
8 01-08-2019 00:35:00 16.8 C 70 % 11.3 C
9 01-08-2019 00:40:00 16.7 C 71 % 11.42 C
10 01-08-2019 00:45:00 16.6 C 71 % 11.32 C
11 01-08-2019 00:50:00 16.4 C 71 % 11.13 C
12 01-08-2019 00:55:00 16.3 C 72 % 11.25 C
13 01-08-2019 01:00:00 16.1 C 73 % 11.26 C
14 01-08-2019 01:05:00 15.9 C 73 % 11.07 C
15 01-08-2019 01:10:00 15.8 C 74 % 11.18 C
16 01-08-2019 01:15:00 15.7 C 75 % 11.28 C
17 01-08-2019 01:20:00 15.6 C 75 % 11.19 C
18 01-08-2019 01:25:00 15.6 C 75 % 11.19 C
19 01-08-2019 01:30:00 15.4 C 75 % 11 C
20 01-08-2019 01:35:00 15.4 C 75 % 11 C
21 01-08-2019 01:40:00 15.3 C 76 % 11.1 C
22 01-08-2019 01:45:00 15.2 C 76 % 11 C
23 01-08-2019 01:50:00 15.2 C 76 % 11 C
24 01-08-2019 01:55:00 15.1 C 77 % 11.1 C
25 01-08-2019 02:00:00 15.1 C 77 % 11.1 C
Sensor: Nr:Datum:Temp:Feuchte:Taupunkt:
Aussen-T/F 26 01-08-2019 02:05:00 14.9 C 77 % 10.91 C
27 01-08-2019 02:10:00 14.9 C 78 % 11.1 C
28 01-08-2019 02:15:00 14.8 C 78 % 11 C
29 01-08-2019 02:20:00 14.8 C 79 % 11.2 C
30 01-08-2019 02:25:00 14.7 C 79 % 11.1 C
31 01-08-2019 02:30:00 14.6 C 79 % 11 C
32 01-08-2019 02:35:00 14.6 C 80 % 11.19 C
33 01-08-2019 02:40:00 14.6 C 80 % 11.19 C
34 01-08-2019 02:45:00 14.6 C 80 % 11.19 C
35 01-08-2019 02:50:00 14.6 C 80 % 11.19 C
36 01-08-2019 02:55:00 14.6 C 80 % 11.19 C
37 01-08-2019 03:00:00 14.6 C 81 % 11.38 C
38 01-08-2019 03:05:00 14.6 C 81 % 11.38 C
39 01-08-2019 03:10:00 14.7 C 80 % 11.29 C
40 01-08-2019 03:15:00 14.6 C 80 % 11.19 C
41 01-08-2019 03:20:00 14.5 C 80 % 11.09 C
42 01-08-2019 03:25:00 14.3 C 80 % 10.9 C
43 01-08-2019 03:30:00 14.2 C 81 % 10.99 C
44 01-08-2019 03:35:00 14 C 81 % 10.79 C
45 01-08-2019 03:40:00 13.8 C 81 % 10.6 C
46 01-08-2019 03:45:00 13.7 C 82 % 10.69 C
47 01-08-2019 03:50:00 13.5 C 82 % 10.49 C
48 01-08-2019 03:55:00 13.4 C 83 % 10.57 C
49 01-08-2019 04:00:00 13.3 C 83 % 10.48 C
50 01-08-2019 04:05:00 13.2 C 83 % 10.38 C
Sensor: Nr:Datum:Temp:Feuchte:Taupunkt:
Aussen-T/F 51 01-08-2019 04:10:00 13.1 C 84 % 10.46 C
52 01-08-2019 04:15:00 13 C 84 % 10.36 C
53 01-08-2019 04:20:00 13 C 85 % 10.54 C
54 01-08-2019 04:25:00 12.9 C 85 % 10.44 C
55 01-08-2019 04:30:00 12.9 C 85 % 10.44 C
56 01-08-2019 04:35:00 12.8 C 86 % 10.52 C
57 01-08-2019 04:40:00 12.8 C 86 % 10.52 C
58 01-08-2019 04:45:00 12.9 C 86 % 10.62 C
59 01-08-2019 04:50:00 12.8 C 86 % 10.52 C
60 01-08-2019 04:55:00 12.8 C 86 % 10.52 C
61 01-08-2019 05:00:00 12.8 C 86 % 10.52 C
62 01-08-2019 05:05:00 12.8 C 86 % 10.52 C
63 01-08-2019 05:10:00 12.7 C 86 % 10.42 C
64 01-08-2019 05:15:00 12.7 C 87 % 10.59 C
65 01-08-2019 05:20:00 12.6 C 87 % 10.5 C
66 01-08-2019 05:25:00 12.6 C 87 % 10.5 C
67 01-08-2019 05:30:00 12.7 C 88 % 10.77 C
68 01-08-2019 05:35:00 12.7 C 87 % 10.59 C
69 01-08-2019 05:40:00 12.6 C 87 % 10.5 C
70 01-08-2019 05:45:00 12.5 C 87 % 10.4 C
71 01-08-2019 05:50:00 12.4 C 87 % 10.3 C
72 01-08-2019 05:55:00 12.4 C 87 % 10.3 C
73 01-08-2019 06:00:00 12.3 C 88 % 10.37 C
74 01-08-2019 06:05:00 12.3 C 88 % 10.37 C
75 01-08-2019 06:10:00 12.2 C 88 % 10.27 C
Sensor: Nr:Datum:Temp:Feuchte:Taupunkt:
Aussen-T/F 76 01-08-2019 06:15:00 12.2 C 88 % 10.27 C
77 01-08-2019 06:20:00 12.1 C 88 % 10.17 C
78 01-08-2019 06:25:00 12.1 C 89 % 10.34 C
79 01-08-2019 06:30:00 12.1 C 88 % 10.17 C
80 01-08-2019 06:35:00 12 C 89 % 10.25 C
81 01-08-2019 06:40:00 12 C 89 % 10.25 C
82 01-08-2019 06:45:00 12 C 89 % 10.25 C
83 01-08-2019 06:50:00 12.1 C 89 % 10.34 C
84 01-08-2019 06:55:00 12.1 C 89 % 10.34 C
85 01-08-2019 07:00:00 12.1 C 89 % 10.34 C
86 01-08-2019 07:05:00 12.1 C 89 % 10.34 C
87 01-08-2019 07:10:00 12.1 C 89 % 10.34 C
88 01-08-2019 07:15:00 12.2 C 89 % 10.44 C
89 01-08-2019 07:20:00 12.2 C 89 % 10.44 C
90 01-08-2019 07:25:00 12.2 C 90 % 10.61 C
91 01-08-2019 07:30:00 12.3 C 90 % 10.71 C
92 01-08-2019 07:35:00 12.5 C 90 % 10.91 C
93 01-08-2019 07:40:00 12.8 C 90 % 11.2 C
94 01-08-2019 07:45:00 13.1 C 89 % 11.33 C
95 01-08-2019 07:50:00 13.4 C 88 % 11.45 C
96 01-08-2019 07:55:00 13.7 C 88 % 11.75 C
97 01-08-2019 08:00:00 13.9 C 87 % 11.77 C
98 01-08-2019 08:05:00 14.2 C 86 % 11.89 C
99 01-08-2019 08:10:00 14.4 C 85 % 11.91 C
100 01-08-2019 08:15:00 14.7 C 83 % 11.85 C
Sensor: Nr:Datum:Temp:Feuchte:Taupunkt:
Aussen-T/F 101 01-08-2019 08:20:00 15 C 83 % 12.14 C
102 01-08-2019 08:25:00 15.2 C 81 % 11.96 C
103 01-08-2019 08:30:00 15.3 C 80 % 11.87 C
104 01-08-2019 08:35:00 15.5 C 80 % 12.07 C
105 01-08-2019 08:40:00 15.7 C 79 % 12.07 C
106 01-08-2019 08:45:00 15.8 C 79 % 12.17 C
107 01-08-2019 08:50:00 16.1 C 78 % 12.27 C
108 01-08-2019 08:55:00 16.3 C 77 % 12.26 C
109 01-08-2019 09:00:00 16.6 C 77 % 12.55 C
110 01-08-2019 09:05:00 16.9 C 76 % 12.65 C
111 01-08-2019 09:10:00 17.2 C 75 % 12.73 C
112 01-08-2019 09:15:00 17.3 C 75 % 12.83 C
113 01-08-2019 09:20:00 17.4 C 74 % 12.72 C
114 01-08-2019 09:25:00 17.5 C 74 % 12.82 C
115 01-08-2019 09:30:00 17.6 C 73 % 12.71 C
116 01-08-2019 09:35:00 17.6 C 73 % 12.71 C
117 01-08-2019 09:40:00 17.7 C 73 % 12.8 C
118 01-08-2019 09:45:00 18 C 72 % 12.88 C
119 01-08-2019 09:50:00 18.3 C 71 % 12.95 C
120 01-08-2019 09:55:00 18.7 C 70 % 13.12 C
121 01-08-2019 10:00:00 19.2 C 68 % 13.15 C
122 01-08-2019 10:05:00 19.4 C 67 % 13.12 C
123 01-08-2019 10:10:00 19.7 C 65 % 12.94 C
124 01-08-2019 10:15:00 20 C 63 % 12.75 C
125 01-08-2019 10:20:00 20.2 C 63 % 12.94 C
Sensor: Nr:Datum:Temp:Feuchte:Taupunkt:
Aussen-T/F 126 01-08-2019 10:25:00 20.3 C 62 % 12.79 C
127 01-08-2019 10:30:00 20.5 C 60 % 12.47 C
128 01-08-2019 10:35:00 20.6 C 61 % 12.82 C
129 01-08-2019 10:40:00 20.7 C 61 % 12.91 C
130 01-08-2019 10:45:00 20.8 C 62 % 13.26 C
131 01-08-2019 10:50:00 21.1 C 59 % 12.78 C
132 01-08-2019 10:55:00 21.1 C 58 % 12.52 C
133 01-08-2019 11:00:00 21.2 C 57 % 12.35 C
134 01-08-2019 11:05:00 21.2 C 57 % 12.35 C
135 01-08-2019 11:10:00 21.3 C 57 % 12.44 C
136 01-08-2019 11:15:00 21.4 C 58 % 12.8 C
137 01-08-2019 11:20:00 21.6 C 57 % 12.72 C
138 01-08-2019 11:25:00 21.7 C 56 % 12.54 C
139 01-08-2019 11:30:00 21.9 C 55 % 12.46 C
140 01-08-2019 11:35:00 22.1 C 54 % 12.36 C
141 01-08-2019 11:40:00 22 C 55 % 12.55 C
142 01-08-2019 11:45:00 22.2 C 55 % 12.73 C
143 01-08-2019 11:50:00 22.3 C 54 % 12.55 C
144 01-08-2019 11:55:00 22.4 C 54 % 12.64 C
145 01-08-2019 12:00:00 22.4 C 54 % 12.64 C
146 01-08-2019 12:05:00 22.6 C 53 % 12.54 C
147 01-08-2019 12:10:00 22.6 C 53 % 12.54 C
148 01-08-2019 12:15:00 22.6 C 53 % 12.54 C
149 01-08-2019 12:20:00 22.7 C 53 % 12.63 C
150 01-08-2019 12:25:00 22.8 C 52 % 12.43 C
Sensor: Nr:Datum:Temp:Feuchte:Taupunkt:
Aussen-T/F 151 01-08-2019 12:30:00 22.7 C 53 % 12.63 C
152 01-08-2019 12:35:00 22.4 C 53 % 12.36 C
153 01-08-2019 12:40:00 22.2 C 54 % 12.45 C
154 01-08-2019 12:45:00 22.1 C 55 % 12.64 C
155 01-08-2019 12:50:00 22.1 C 55 % 12.64 C
156 01-08-2019 12:55:00 22.2 C 54 % 12.45 C
157 01-08-2019 13:00:00 22.3 C 55 % 12.83 C
158 01-08-2019 13:05:00 22.6 C 55 % 13.11 C
159 01-08-2019 13:10:00 22.8 C 53 % 12.73 C
160 01-08-2019 13:15:00 23.1 C 52 % 12.71 C
161 01-08-2019 13:20:00 23.1 C 52 % 12.71 C
162 01-08-2019 13:25:00 23.1 C 52 % 12.71 C
163 01-08-2019 13:30:00 23.2 C 54 % 13.38 C
164 01-08-2019 13:35:00 23.2 C 54 % 13.38 C
165 01-08-2019 13:40:00 23.3 C 54 % 13.47 C
166 01-08-2019 13:45:00 23.6 C 53 % 13.46 C
167 01-08-2019 13:50:00 23.8 C 51 % 13.06 C
168 01-08-2019 13:55:00 23.9 C 51 % 13.15 C
169 01-08-2019 14:00:00 23.9 C 50 % 12.85 C
170 01-08-2019 14:05:00 24.1 C 50 % 13.03 C
171 01-08-2019 14:10:00 24.1 C 49 % 12.72 C
172 01-08-2019 14:15:00 24.1 C 49 % 12.72 C
173 01-08-2019 14:20:00 24.1 C 51 % 13.34 C
174 01-08-2019 14:25:00 24.2 C 49 % 12.81 C
175 01-08-2019 14:30:00 24.2 C 49 % 12.81 C
Sensor: Nr:Datum:Temp:Feuchte:Taupunkt:
Aussen-T/F 176 01-08-2019 14:35:00 24.2 C 49 % 12.81 C
177 01-08-2019 14:40:00 24.2 C 50 % 13.12 C
178 01-08-2019 14:45:00 24.2 C 49 % 12.81 C
179 01-08-2019 14:50:00 24.2 C 49 % 12.81 C
180 01-08-2019 14:55:00 24.3 C 49 % 12.91 C
181 01-08-2019 15:00:00 24.4 C 50 % 13.31 C
182 01-08-2019 15:05:00 24.5 C 48 % 12.77 C
183 01-08-2019 15:10:00 24.6 C 49 % 13.18 C
184 01-08-2019 15:15:00 24.7 C 48 % 12.96 C
185 01-08-2019 15:20:00 24.8 C 48 % 13.05 C
186 01-08-2019 15:25:00 24.8 C 49 % 13.36 C
187 01-08-2019 15:30:00 24.7 C 48 % 12.96 C
188 01-08-2019 15:35:00 24.7 C 49 % 13.27 C
189 01-08-2019 15:40:00 24.6 C 49 % 13.18 C
190 01-08-2019 15:45:00 24.5 C 49 % 13.09 C
191 01-08-2019 15:50:00 24.3 C 50 % 13.22 C
192 01-08-2019 15:55:00 24.3 C 50 % 13.22 C
193 01-08-2019 16:00:00 24.2 C 51 % 13.43 C
194 01-08-2019 16:05:00 24.2 C 51 % 13.43 C
195 01-08-2019 16:10:00 24.2 C 51 % 13.43 C
196 01-08-2019 16:15:00 24.2 C 51 % 13.43 C
197 01-08-2019 16:20:00 24.2 C 51 % 13.43 C
198 01-08-2019 16:25:00 24.2 C 51 % 13.43 C
199 01-08-2019 16:30:00 24.3 C 51 % 13.52 C
200 01-08-2019 16:35:00 24.4 C 51 % 13.61 C
Sensor: Nr:Datum:Temp:Feuchte:Taupunkt:
Aussen-T/F 201 01-08-2019 16:40:00 24.6 C 49 % 13.18 C
202 01-08-2019 16:45:00 24.7 C 48 % 12.96 C
203 01-08-2019 16:50:00 24.8 C 48 % 13.05 C
204 01-08-2019 16:55:00 24.8 C 47 % 12.73 C
205 01-08-2019 17:00:00 24.8 C 47 % 12.73 C
206 01-08-2019 17:05:00 25 C 48 % 13.23 C
207 01-08-2019 17:10:00 25 C 48 % 13.23 C
208 01-08-2019 17:15:00 24.8 C 47 % 12.73 C
209 01-08-2019 17:20:00 24.8 C 48 % 13.05 C
210 01-08-2019 17:25:00 24.8 C 49 % 13.36 C
211 01-08-2019 17:30:00 24.7 C 49 % 13.27 C
212 01-08-2019 17:35:00 25 C 49 % 13.55 C
213 01-08-2019 17:40:00 25.4 C 47 % 13.27 C
214 01-08-2019 17:45:00 25.5 C 47 % 13.36 C
215 01-08-2019 17:50:00 25.7 C 47 % 13.55 C
216 01-08-2019 17:55:00 26.1 C 46 % 13.58 C
217 01-08-2019 18:00:00 26.6 C 46 % 14.03 C
218 01-08-2019 18:05:00 26.9 C 44 % 13.62 C
219 01-08-2019 18:10:00 26.7 C 44 % 13.44 C
220 01-08-2019 18:15:00 26.4 C 46 % 13.85 C
221 01-08-2019 18:20:00 26.2 C 45 % 13.33 C
222 01-08-2019 18:25:00 25.8 C 45 % 12.97 C
223 01-08-2019 18:30:00 25.7 C 46 % 13.22 C
224 01-08-2019 18:35:00 25.6 C 46 % 13.12 C
225 01-08-2019 18:40:00 26.1 C 46 % 13.58 C
Sensor: Nr:Datum:Temp:Feuchte:Taupunkt:
Aussen-T/F 226 01-08-2019 18:45:00 26.6 C 44 % 13.35 C
227 01-08-2019 18:50:00 26.8 C 43 % 13.18 C
228 01-08-2019 18:55:00 26.8 C 42 % 12.82 C
229 01-08-2019 19:00:00 26.8 C 43 % 13.18 C
230 01-08-2019 19:05:00 26.8 C 43 % 13.18 C
231 01-08-2019 19:10:00 26.8 C 44 % 13.53 C
232 01-08-2019 19:15:00 26.7 C 44 % 13.44 C
233 01-08-2019 19:20:00 26.6 C 45 % 13.69 C
234 01-08-2019 19:25:00 26.4 C 45 % 13.51 C
235 01-08-2019 19:30:00 26.3 C 45 % 13.42 C
236 01-08-2019 19:35:00 26.1 C 46 % 13.58 C
237 01-08-2019 19:40:00 25.9 C 46 % 13.4 C
238 01-08-2019 19:45:00 25.7 C 47 % 13.55 C
239 01-08-2019 19:50:00 25.6 C 47 % 13.45 C
240 01-08-2019 19:55:00 25.5 C 47 % 13.36 C
241 01-08-2019 20:00:00 25.4 C 48 % 13.6 C
242 01-08-2019 20:05:00 25.2 C 51 % 14.35 C
243 01-08-2019 20:10:00 24.9 C 52 % 14.37 C
244 01-08-2019 20:15:00 24.6 C 52 % 14.09 C
245 01-08-2019 20:20:00 24.4 C 53 % 14.2 C
246 01-08-2019 20:25:00 24.2 C 54 % 14.31 C
247 01-08-2019 20:30:00 24 C 53 % 13.83 C
248 01-08-2019 20:35:00 23.9 C 55 % 14.31 C
249 01-08-2019 20:40:00 23.7 C 56 % 14.4 C
250 01-08-2019 20:45:00 23.4 C 57 % 14.4 C
Sensor: Nr:Datum:Temp:Feuchte:Taupunkt:
Aussen-T/F 251 01-08-2019 20:50:00 23 C 57 % 14.03 C
252 01-08-2019 20:55:00 22.6 C 58 % 13.92 C
253 01-08-2019 21:00:00 22.3 C 59 % 13.9 C
254 01-08-2019 21:05:00 22.1 C 60 % 13.98 C
255 01-08-2019 21:10:00 21.8 C 60 % 13.69 C
256 01-08-2019 21:15:00 21.6 C 61 % 13.76 C
257 01-08-2019 21:20:00 21.3 C 62 % 13.73 C
258 01-08-2019 21:25:00 21.1 C 62 % 13.54 C
259 01-08-2019 21:30:00 20.9 C 63 % 13.6 C
260 01-08-2019 21:35:00 20.8 C 64 % 13.74 C
261 01-08-2019 21:40:00 20.7 C 64 % 13.65 C
262 01-08-2019 21:45:00 20.5 C 65 % 13.7 C
263 01-08-2019 21:50:00 20.4 C 66 % 13.84 C
264 01-08-2019 21:55:00 20.3 C 66 % 13.74 C
265 01-08-2019 22:00:00 20.3 C 66 % 13.74 C
266 01-08-2019 22:05:00 20.2 C 67 % 13.88 C
267 01-08-2019 22:10:00 20.1 C 67 % 13.78 C
268 01-08-2019 22:15:00 19.9 C 67 % 13.59 C
269 01-08-2019 22:20:00 19.8 C 68 % 13.73 C
270 01-08-2019 22:25:00 19.7 C 68 % 13.63 C
271 01-08-2019 22:30:00 19.6 C 67 % 13.31 C
272 01-08-2019 22:35:00 19.6 C 68 % 13.54 C
273 01-08-2019 22:40:00 19.5 C 68 % 13.44 C
274 01-08-2019 22:45:00 19.5 C 68 % 13.44 C
275 01-08-2019 22:50:00 19.5 C 69 % 13.66 C
Sensor: Nr:Datum:Temp:Feuchte:Taupunkt:
Aussen-T/F 276 01-08-2019 22:55:00 19.5 C 69 % 13.66 C
277 01-08-2019 23:00:00 19.5 C 68 % 13.44 C
278 01-08-2019 23:05:00 19.4 C 68 % 13.34 C
279 01-08-2019 23:10:00 19.4 C 68 % 13.34 C
280 01-08-2019 23:15:00 19.3 C 68 % 13.25 C
281 01-08-2019 23:20:00 19.3 C 69 % 13.47 C
282 01-08-2019 23:25:00 19.2 C 70 % 13.6 C
283 01-08-2019 23:30:00 19.2 C 70 % 13.6 C
284 01-08-2019 23:35:00 19.2 C 70 % 13.6 C
285 01-08-2019 23:40:00 19.1 C 71 % 13.72 C
286 01-08-2019 23:45:00 19.1 C 71 % 13.72 C
287 01-08-2019 23:50:00 19.1 C 71 % 13.72 C
288 01-08-2019 23:55:00 19.1 C 71 % 13.72 C

Legende:
   Min
   Max


Maximal/Minimal-Werte vom 01.08.2019 - 01.08.2019

Sensor Min Max Avg
Temp
(Aussen-T/F)
12 °C
01-08-2019  06:35:00
26.9 °C
01-08-2019  18:05:00
19.46 °C
Feuchte
(Aussen-T/F)
42 %
01-08-2019  18:55:00
90 %
01-08-2019  07:25:00
65.58 %
Taupunkt
(Aussen-T/F)
10.17 C
01-08-2019  06:20:00
14.4 C
01-08-2019  20:40:00
12.33 C

Die Daten stammen von einer Davis Vantage Pro 2 Wetter-Station und werden unter Linux mit der Software wview2wettercgi und aufbereitet. Alle Angaben erfolgen ohne Gewähr für ihre Vollständigkeit oder Richtigkeit.
Kontakt: Rainer Krienke krienke@uni-koblenz.de . Meine Webseiten an der Uni Koblenz oder privat.
Version: $Revision: 0.78 $